N2STN CYYR-KBGR
Flight info
| Callsign | N2STN |
|---|---|
| Flight time | N/A |
| Altitude | 16000 |
| Route | MEALY1/08 FRAZR DCT OMPOG DCT TAFFY DCT IMAMA DCT BGR |
| Aircraft | S22T/L-SDGRY/S |
Departure
| Time | N/A |
|---|---|
| Airport | Goose Bay Airport (CYYR) |
Arrival
| Time | 2026-05-07 20:19 |
|---|---|
| Airport | Bangor International Airport (KBGR) |
| Time | Latitude | Longitude | Altitude | Speed | Heading |
|---|---|---|---|---|---|
| 2026-05-07 20:05 | 44.81540 | -68.49022 | 3006 ft | 166 kts | 173° |
| 2026-05-07 20:06 | 44.80400 | -68.48689 | 3007 ft | 168 kts | 173° |
| 2026-05-07 20:06 | 44.79254 | -68.48346 | 3002 ft | 170 kts | 173° |
| 2026-05-07 20:06 | 44.78094 | -68.48007 | 2999 ft | 170 kts | 172° |
| 2026-05-07 20:06 | 44.76943 | -68.47672 | 2997 ft | 169 kts | 173° |
| 2026-05-07 20:07 | 44.75794 | -68.47325 | 3004 ft | 169 kts | 172° |
| 2026-05-07 20:07 | 44.74643 | -68.46987 | 2996 ft | 169 kts | 174° |
| 2026-05-07 20:07 | 44.74271 | -68.46881 | 3003 ft | 168 kts | 173° |
| 2026-05-07 20:09 | 44.66897 | -68.51219 | 3003 ft | 161 kts | 226° |
| 2026-05-07 20:09 | 44.66091 | -68.52315 | 3005 ft | 162 kts | 227° |
| 2026-05-07 20:10 | 44.64553 | -68.54593 | 2999 ft | 158 kts | 240° |
| 2026-05-07 20:10 | 44.64150 | -68.56001 | 2997 ft | 155 kts | 257° |
| 2026-05-07 20:10 | 44.64094 | -68.57502 | 2988 ft | 154 kts | 274° |
| 2026-05-07 20:10 | 44.64390 | -68.58944 | 2992 ft | 157 kts | 292° |
| 2026-05-07 20:11 | 44.65021 | -68.60200 | 2991 ft | 159 kts | 310° |
| 2026-05-07 20:11 | 44.65813 | -68.61298 | 3012 ft | 158 kts | 312° |
| 2026-05-07 20:11 | 44.66562 | -68.62325 | 2990 ft | 143 kts | 309° |
| 2026-05-07 20:11 | 44.67210 | -68.63301 | 2989 ft | 132 kts | 308° |
| 2026-05-07 20:12 | 44.67814 | -68.64173 | 2989 ft | 114 kts | 308° |
| 2026-05-07 20:12 | 44.68345 | -68.64948 | 2849 ft | 110 kts | 309° |
| 2026-05-07 20:12 | 44.68879 | -68.65720 | 2691 ft | 112 kts | 309° |
| 2026-05-07 20:12 | 44.69243 | -68.66242 | 2586 ft | 113 kts | 309° |
| 2026-05-07 20:13 | 44.69977 | -68.67302 | 2380 ft | 113 kts | 309° |
| 2026-05-07 20:13 | 44.70522 | -68.68082 | 2228 ft | 112 kts | 309° |
| 2026-05-07 20:13 | 44.70886 | -68.68605 | 2122 ft | 113 kts | 309° |
| 2026-05-07 20:13 | 44.71436 | -68.69395 | 1966 ft | 113 kts | 311° |
| 2026-05-07 20:14 | 44.71983 | -68.70177 | 1813 ft | 111 kts | 311° |
| 2026-05-07 20:14 | 44.72698 | -68.71208 | 1609 ft | 110 kts | 307° |
| 2026-05-07 20:14 | 44.73057 | -68.71723 | 1516 ft | 110 kts | 308° |
| 2026-05-07 20:14 | 44.73582 | -68.72461 | 1495 ft | 102 kts | 309° |
| 2026-05-07 20:15 | 44.74209 | -68.73378 | 1489 ft | 94 kts | 307° |
| 2026-05-07 20:15 | 44.74630 | -68.73986 | 1487 ft | 79 kts | 305° |
| 2026-05-07 20:15 | 44.75008 | -68.74495 | 1429 ft | 78 kts | 309° |
| 2026-05-07 20:15 | 44.75272 | -68.74849 | 1461 ft | 76 kts | 307° |
| 2026-05-07 20:16 | 44.75657 | -68.75392 | 1407 ft | 80 kts | 307° |
| 2026-05-07 20:16 | 44.76040 | -68.75992 | 1306 ft | 89 kts | 306° |
| 2026-05-07 20:16 | 44.76479 | -68.76655 | 1139 ft | 95 kts | 308° |
| 2026-05-07 20:16 | 44.76938 | -68.77317 | 1082 ft | 94 kts | 309° |
| 2026-05-07 20:17 | 44.77409 | -68.77987 | 885 ft | 97 kts | 309° |
| 2026-05-07 20:17 | 44.77877 | -68.78659 | 699 ft | 95 kts | 308° |
| 2026-05-07 20:17 | 44.78319 | -68.79338 | 588 ft | 92 kts | 307° |
| 2026-05-07 20:17 | 44.78772 | -68.79968 | 481 ft | 91 kts | 306° |
| 2026-05-07 20:18 | 44.79203 | -68.80622 | 389 ft | 93 kts | 311° |
| 2026-05-07 20:18 | 44.79698 | -68.81279 | 263 ft | 101 kts | 303° |
| 2026-05-07 20:18 | 44.80189 | -68.82013 | 197 ft | 97 kts | 309° |
| 2026-05-07 20:18 | 44.80552 | -68.82604 | 179 ft | 58 kts | 295° |
| 2026-05-07 20:19 | 44.80752 | -68.82876 | 182 ft | 32 kts | 329° |
| 2026-05-07 20:19 | 44.80905 | -68.83050 | 184 ft | 25 kts | 313° |
| 2026-05-07 20:19 | 44.81015 | -68.83202 | 183 ft | 20 kts | 315° |
| 2026-05-07 20:19 | 44.81100 | -68.83320 | 183 ft | 9 kts | 326° |
| 2026-05-07 20:20 | 44.81143 | -68.83311 | 183 ft | 4 kts | 30° |
| 2026-05-07 20:20 | 44.81188 | -68.83279 | 187 ft | 10 kts | 41° |
| 2026-05-07 20:20 | 44.81249 | -68.83195 | 187 ft | 12 kts | 44° |
| 2026-05-07 20:20 | 44.81295 | -68.83132 | 185 ft | 7 kts | 45° |
| 2026-05-07 20:21 | 44.81320 | -68.83085 | 185 ft | 4 kts | 77° |
| 2026-05-07 20:21 | 44.81315 | -68.83051 | 186 ft | 3 kts | 108° |
| 2026-05-07 20:21 | 44.81311 | -68.83036 | 186 ft | 0 kts | 115° |